Decoded Metar for LFPO (PARIS ORLY in FRANCE) (IATA:ORY) | Meteo·Mobile Aviation Weather
aviador You're here:

LFPO Decoded Metar

PARIS ORLY in FRANCE
Report Time2019-09-21 09:30:00
UTC Time2019-09-21 10:05:29
Flight Rules vfr VFR
Wind140° at 06 kt
W.Decomp.*RWY 20: 3.1 kt HW 5.1 kt LCW
RWY 08: 2.9 kt HW 5.2 kt RCW
RWY 06: 0.9 kt HW 5.9 kt RCW
Visibility9999 m
Phenomena:N/A
Clouds:N/A
Expected CloudBase > 4,800 ft AGL from Temp-Dew spread
CeilingNone
Temp21°C (ISA +7)
Dew Point09°C (46% RH)
AAT18.6°C
QNH1014 hPa
Density Alt1,211 ft
Elevation315 ft
Report Wrong Elevation
Raw Report
LFPO 210930Z 14006KT 100V230 CAVOK 21/09 Q1014 NOSIG=

Extra information for LFPO:More info

Metar Taf Metar & Taf Last 4 Metars F.Rules Stats Wind Profile Meteogram Temp Stats Airport Information Weather charts Add Link Nearby VenuesMetar ALERT Operation Metar Decoded Social comments